Terminal Aerodrome Forecast
Issued by NWS

Home | Current Version | Previous Version | Text Only | Print | Product List | Glossary On
Versions: 1 2 3 4 5 6 7 8 9 10 11 12 13 14 15 16 17 18 19 20 21
000
FTUS46 KPDT 222300
TAFDLS
TAF
KDLS 222322Z 2300/2324 31010KT P6SM SCT120
     FM230400 VRB04KT P6SM BKN120
     FM231200 VRB03KT 6SM BR SCT025 OVC070
     FM231900 33004KT P6SM SCT025 OVC050=

USA.gov is the U.S. government's official web portal to all federal, state and local government web resources and services.